Time;durP1;ratioP1;P1;durP2;ratioP2;P2;SDS_P1;SDS_P2;PMS_P1;PMS_P2;Temp;Humidity;BMP_temperature;BMP_pressure;BME280_temperature;BME280_humidity;BME280_pressure;Samples;Min_cycle;Max_cycle;Signal;HPM_P1;HPM_P2
2022/06/18 00:00:03;;;;;;;4.10;2.90;;;;;;;15.12;66.00;96739.91;2059025;28;20050;-59
2022/06/18 00:01:12;;;;;;;4.15;2.90;;;;;;;15.03;67.29;96741.25;2056567;28;20051;-60
2022/06/18 00:02:15;;;;;;;5.85;3.75;;;;;;;15.06;67.11;96748.09;2057149;28;20047;-59
2022/06/18 00:03:17;;;;;;;4.78;3.13;;;;;;;15.09;67.01;96740.91;2048680;28;20539;-59
2022/06/18 00:04:21;;;;;;;6.85;3.38;;;;;;;15.12;66.67;96745.13;2056207;28;20042;-59
2022/06/18 00:05:22;;;;;;;6.88;3.88;;;;;;;15.07;67.50;96742.75;2049098;28;20441;-59
2022/06/18 00:06:24;;;;;;;5.70;3.60;;;;;;;15.07;66.56;96747.16;2057086;28;20058;-59
2022/06/18 00:07:25;;;;;;;5.30;3.47;;;;;;;15.04;66.62;96742.09;2057116;28;20524;-59
2022/06/18 00:08:28;;;;;;;5.90;3.10;;;;;;;14.99;66.98;96739.69;2048586;28;20055;-59
2022/06/18 00:09:31;;;;;;;5.38;3.58;;;;;;;14.97;66.85;96741.56;2056664;28;20551;-58
2022/06/18 00:10:33;;;;;;;5.25;3.65;;;;;;;14.95;67.51;96741.66;2056421;28;20043;-59
2022/06/18 00:14:16;;;;;;;9.73;4.55;;;;;;;14.89;68.17;96743.72;2053819;28;20061;-60
2022/06/18 00:15:24;;;;;;;5.63;3.40;;;;;;;14.91;67.92;96753.19;2056060;28;20066;-59
2022/06/18 00:16:26;;;;;;;6.32;3.80;;;;;;;14.95;67.39;96749.50;2056346;28;20051;-59
2022/06/18 00:17:28;;;;;;;9.10;3.72;;;;;;;15.02;66.91;96750.00;2056892;28;20042;-60
2022/06/18 00:18:29;;;;;;;10.52;4.40;;;;;;;15.02;66.96;96743.94;2048458;29;20051;-59
2022/06/18 00:19:30;;;;;;;5.70;4.32;;;;;;;15.05;66.73;96749.00;2047732;28;20563;-60
2022/06/18 00:20:34;;;;;;;7.22;4.05;;;;;;;15.03;66.31;96749.09;2048101;29;20070;-60
2022/06/18 00:21:35;;;;;;;7.03;4.22;;;;;;;15.03;66.72;96749.09;2049119;28;20076;-58
2022/06/18 00:22:36;;;;;;;5.97;4.20;;;;;;;15.02;66.78;96752.63;2057001;28;20042;-59
2022/06/18 00:23:38;;;;;;;6.63;4.30;;;;;;;14.83;69.17;96751.91;2056388;28;20062;-58
2022/06/18 00:24:39;;;;;;;5.78;3.83;;;;;;;14.68;70.33;96756.16;2048174;29;20070;-59
2022/06/18 00:25:42;;;;;;;6.55;4.35;;;;;;;14.50;70.76;96752.69;2048692;28;20047;-59
2022/06/18 00:26:43;;;;;;;8.48;4.22;;;;;;;14.57;70.60;96754.09;2048738;28;20556;-59
2022/06/18 00:27:44;;;;;;;6.20;3.80;;;;;;;14.47;70.77;96750.22;2056670;28;20035;-60
2022/06/18 00:28:46;;;;;;;6.13;3.88;;;;;;;14.45;70.93;96752.91;2056557;28;20047;-58
2022/06/18 00:29:51;;;;;;;7.20;4.07;;;;;;;14.40;70.74;96751.44;2056405;28;20520;-60
2022/06/18 00:30:52;;;;;;;9.98;3.97;;;;;;;14.35;71.03;96746.44;2056059;28;20043;-60
2022/06/18 00:31:55;;;;;;;7.65;3.85;;;;;;;14.34;70.62;96748.22;2056620;28;20082;-59
2022/06/18 00:32:56;;;;;;;7.05;3.85;;;;;;;14.32;71.21;96744.84;2055896;28;20051;-60
2022/06/18 00:33:58;;;;;;;8.55;4.10;;;;;;;14.28;71.60;96751.16;2056236;28;20393;-59
2022/06/18 00:34:59;;;;;;;6.80;4.40;;;;;;;14.53;70.22;96752.56;2056909;28;20050;-60
2022/06/18 00:36:02;;;;;;;5.80;3.92;;;;;;;14.48;69.56;96755.34;2064371;28;20061;-59
2022/06/18 00:37:04;;;;;;;5.60;4.25;;;;;;;14.50;69.61;96750.91;2055945;28;20047;-60
2022/06/18 00:38:06;;;;;;;8.88;4.55;;;;;;;14.52;69.57;96756.06;2039883;29;20055;-59
2022/06/18 00:39:16;;;;;;;8.13;4.30;;;;;;;14.64;68.53;96750.22;2056573;28;20054;-60
2022/06/18 00:40:24;;;;;;;7.00;4.30;;;;;;;14.64;68.78;96752.84;2064236;28;20142;-59
2022/06/18 00:41:26;;;;;;;6.53;4.20;;;;;;;14.74;68.29;96755.84;2056007;28;20057;-59
2022/06/18 00:42:29;;;;;;;5.13;4.18;;;;;;;14.84;67.57;96761.44;2049069;28;20128;-59
2022/06/18 00:43:39;;;;;;;7.53;4.28;;;;;;;14.78;67.83;96753.00;2048707;28;20055;-59
2022/06/18 00:44:40;;;;;;;6.30;3.83;;;;;;;14.72;68.30;96763.75;2049323;28;20047;-59
2022/06/18 00:45:42;;;;;;;7.13;4.03;;;;;;;14.66;68.10;96751.00;2032833;29;20051;-59
2022/06/18 00:47:14;;;;;;;6.32;4.57;;;;;;;14.62;68.91;96757.34;2040498;28;20062;-60
2022/06/18 00:48:27;;;;;;;8.30;4.45;;;;;;;14.72;68.58;96755.91;2052361;28;20121;-60
2022/06/18 00:49:33;;;;;;;6.60;4.20;;;;;;;14.65;68.67;96758.91;2042002;29;20048;-59
2022/06/18 00:50:41;;;;;;;6.35;4.72;;;;;;;14.58;68.79;96754.94;2048917;28;20537;-58
2022/06/18 00:51:44;;;;;;;9.10;4.30;;;;;;;14.56;69.06;96753.22;2049274;28;20522;-59
2022/06/18 00:52:51;;;;;;;6.25;4.25;;;;;;;14.53;68.74;96749.94;2056780;28;20062;-58
2022/06/18 00:53:55;;;;;;;5.55;4.15;;;;;;;14.61;68.94;96754.78;2055974;28;20054;-59
2022/06/18 00:55:02;;;;;;;7.28;3.78;;;;;;;14.57;68.77;96756.72;2035924;29;20044;-59
2022/06/18 00:56:12;;;;;;;8.70;4.28;;;;;;;14.46;69.01;96753.75;2049459;28;20547;-60
2022/06/18 00:57:15;;;;;;;;;;;;;;;14.44;69.14;96750.38;2056916;28;20070;-59
2022/06/18 00:58:19;;;;;;;5.68;3.80;;;;;;;14.38;69.32;96754.16;2056517;28;19914;-60
2022/06/18 00:59:26;;;;;;;8.02;4.22;;;;;;;14.32;69.69;96755.28;2057011;28;20488;-59
2022/06/18 01:00:37;;;;;;;6.43;4.00;;;;;;;14.34;69.39;96750.84;2055506;28;20054;-58
2022/06/18 01:01:43;;;;;;;8.65;4.22;;;;;;;14.31;69.89;96745.78;2049709;28;20049;-59
2022/06/18 01:02:47;;;;;;;6.00;4.03;;;;;;;14.23;70.02;96747.91;2056344;28;20039;-60
2022/06/18 01:03:49;;;;;;;5.85;4.30;;;;;;;14.21;70.07;96746.31;2055921;28;20049;-59
2022/06/18 01:04:50;;;;;;;4.93;3.78;;;;;;;14.20;69.61;96749.84;2041466;28;20154;-60
2022/06/18 01:05:52;;;;;;;6.68;4.43;;;;;;;14.19;69.95;96741.16;2039974;28;20405;-59
2022/06/18 01:07:16;;;;;;;7.63;4.38;;;;;;;14.25;69.99;96742.63;2056501;28;20058;-59
2022/06/18 01:08:19;;;;;;;6.18;4.03;;;;;;;14.25;69.42;96740.88;2056500;28;20043;-58
2022/06/18 01:09:20;;;;;;;7.05;4.60;;;;;;;14.23;69.77;96740.09;2050645;28;20540;-60
2022/06/18 01:10:27;;;;;;;7.55;4.40;;;;;;;14.16;69.67;96743.91;2055612;28;20080;-59
2022/06/18 01:11:30;;;;;;;9.15;4.40;;;;;;;14.11;69.82;96740.69;2047848;29;20058;-59
2022/06/18 01:12:31;;;;;;;6.22;4.28;;;;;;;14.11;70.00;96743.28;2040587;28;20054;-59
2022/06/18 01:13:36;;;;;;;7.68;4.57;;;;;;;14.09;70.33;96740.78;2040066;29;20087;-56
2022/06/18 01:14:40;;;;;;;6.90;4.47;;;;;;;14.07;70.77;96739.16;2041908;28;20048;-60
2022/06/18 01:15:42;;;;;;;10.10;4.68;;;;;;;14.06;70.83;96740.94;2048296;29;20043;-60
2022/06/18 01:16:43;;;;;;;6.40;4.50;;;;;;;14.03;71.12;96740.22;2040909;28;20040;-59
2022/06/18 01:17:51;;;;;;;8.30;4.30;;;;;;;14.03;70.92;96742.81;2056795;28;20046;-59
2022/06/18 01:18:53;;;;;;;6.65;4.43;;;;;;;14.03;71.07;96745.44;2055587;28;20397;-59
2022/06/18 01:19:56;;;;;;;7.70;4.40;;;;;;;14.01;71.25;96742.91;2047625;29;20051;-60
2022/06/18 01:21:03;;;;;;;6.15;4.28;;;;;;;14.03;71.25;96737.59;2032437;29;20136;-59
2022/06/18 01:22:27;;;;;;;7.88;4.90;;;;;;;13.96;71.65;96734.47;2035258;28;20052;-58
2022/06/18 01:23:46;;;;;;;6.32;4.47;;;;;;;13.97;72.27;96743.97;2050881;28;20377;-59
2022/06/18 01:24:47;;;;;;;5.95;4.45;;;;;;;13.98;72.05;96737.84;2050732;28;20043;-59
2022/06/18 01:25:49;;;;;;;8.43;4.55;;;;;;;13.96;72.27;96736.22;2055790;28;20046;-59
2022/06/18 01:26:53;;;;;;;8.07;4.90;;;;;;;13.95;71.84;96737.13;2048243;28;20120;-59
2022/06/18 01:27:55;;;;;;;9.20;4.43;;;;;;;13.98;71.85;96729.16;2048195;28;20047;-59
2022/06/18 01:29:00;;;;;;;9.27;4.55;;;;;;;13.94;71.36;96732.84;2057026;28;20425;-59
2022/06/18 01:30:07;;;;;;;7.68;4.28;;;;;;;13.94;71.58;96735.47;2048018;29;20043;-59
2022/06/18 01:31:10;;;;;;;7.80;4.32;;;;;;;13.92;71.91;96732.91;2035165;28;20056;-59
2022/06/18 01:32:14;;;;;;;7.30;4.65;;;;;;;13.86;72.04;96726.22;2057310;28;20053;-58
2022/06/18 01:33:17;;;;;;;6.20;4.55;;;;;;;13.81;72.27;96730.81;2049791;29;20047;-59
2022/06/18 01:34:20;;;;;;;7.90;4.57;;;;;;;13.84;71.86;96727.22;2050898;28;20051;-59
2022/06/18 01:35:26;;;;;;;8.02;4.68;;;;;;;13.84;72.07;96728.06;2057833;28;20054;-58
2022/06/18 01:36:34;;;;;;;7.32;4.10;;;;;;;13.82;71.79;96729.91;2051406;28;20058;-58
2022/06/18 01:37:36;;;;;;;10.43;4.85;;;;;;;13.78;72.45;96724.91;2050580;28;20050;-59
2022/06/18 01:38:48;;;;;;;7.88;4.68;;;;;;;13.72;72.38;96718.22;2051417;28;20043;-60
2022/06/18 01:39:49;;;;;;;8.27;4.65;;;;;;;13.72;71.93;96723.44;2043111;29;20557;-59
2022/06/18 01:40:55;;;;;;;5.38;4.03;;;;;;;13.70;71.90;96719.22;2041900;28;20123;-58
2022/06/18 01:43:05;;;;;;;6.43;4.80;;;;;;;13.72;72.06;96720.00;2044538;28;20052;-60
2022/06/18 01:44:09;;;;;;;11.07;4.90;;;;;;;13.72;71.96;96722.59;2057570;28;20420;-60
2022/06/18 01:45:16;;;;;;;7.28;4.70;;;;;;;13.74;72.51;96726.84;2065207;28;20050;-59
2022/06/18 01:46:20;;;;;;;6.75;4.65;;;;;;;13.70;72.71;96717.44;2063798;28;20053;-59
2022/06/18 01:47:40;;;;;;;7.82;4.57;;;;;;;13.72;72.63;96725.22;2060463;28;20069;-60
2022/06/18 01:48:41;;;;;;;;;;;;;;;13.77;72.64;96718.00;2052597;28;20454;-59
2022/06/18 01:49:53;;;;;;;7.93;5.05;;;;;;;13.73;72.92;96717.28;2058013;28;19918;-60
2022/06/18 01:51:00;;;;;;;9.68;5.80;;;;;;;13.67;72.99;96715.00;2042144;29;20054;-59
2022/06/18 01:52:01;;;;;;;6.90;4.85;;;;;;;13.74;72.30;96713.78;2035982;29;20044;-58
2022/06/18 01:53:14;;;;;;;7.53;5.10;;;;;;;13.79;72.15;96714.41;2043180;29;20561;-60
2022/06/18 01:54:19;;;;;;;6.28;5.32;;;;;;;13.75;72.43;96717.22;2035123;29;20069;-59
2022/06/18 01:55:25;;;;;;;8.65;4.88;;;;;;;13.70;71.96;96707.00;2041778;29;20055;-59
2022/06/18 01:56:30;;;;;;;7.20;5.32;;;;;;;13.67;72.25;96712.38;2043652;28;20059;-58
2022/06/18 01:57:34;;;;;;;8.40;5.35;;;;;;;13.66;72.27;96708.09;2050098;28;20058;-59
2022/06/18 01:58:42;;;;;;;8.52;5.05;;;;;;;13.68;71.89;96706.22;2049825;28;20070;-58
2022/06/18 01:59:53;;;;;;;8.25;5.40;;;;;;;13.64;72.17;96710.75;2035289;29;20048;-57
2022/06/18 02:01:00;;;;;;;6.72;5.18;;;;;;;13.65;72.53;96703.75;2030333;29;20044;-59
2022/06/18 02:02:03;;;;;;;9.73;5.18;;;;;;;13.66;72.36;96698.50;2034785;29;20051;-59
2022/06/18 02:03:04;;;;;;;8.98;5.90;;;;;;;13.64;72.50;96699.47;2033680;29;20052;-59
2022/06/18 02:04:06;;;;;;;8.95;5.30;;;;;;;13.61;72.38;96705.69;2026353;29;20047;-59
2022/06/18 02:05:07;;;;;;;7.10;4.72;;;;;;;13.55;72.90;96697.28;2034053;29;20470;-60
2022/06/18 02:06:08;;;;;;;9.25;5.55;;;;;;;13.56;73.04;96696.41;2042327;28;20063;-59
2022/06/18 02:07:13;;;;;;;7.25;5.40;;;;;;;13.54;72.44;96698.22;2049376;28;20110;-59
2022/06/18 02:08:15;;;;;;;8.43;5.47;;;;;;;13.46;72.92;96695.97;2049248;28;20051;-59
2022/06/18 02:09:44;;;;;;;7.10;4.65;;;;;;;13.45;72.50;96697.75;2042102;29;20054;-59
2022/06/18 02:10:49;;;;;;;8.55;5.22;;;;;;;13.42;73.04;96708.34;2053412;28;20050;-60
2022/06/18 02:11:51;;;;;;;7.55;5.75;;;;;;;13.41;73.56;96706.63;2049671;29;20055;-58
2022/06/18 02:12:53;;;;;;;10.27;5.35;;;;;;;13.36;74.18;96702.53;2050195;28;20046;-59
2022/06/18 02:14:00;;;;;;;8.30;5.18;;;;;;;13.33;74.13;96702.69;2049521;29;20050;-59
2022/06/18 02:15:11;;;;;;;10.40;5.57;;;;;;;13.30;73.98;96700.22;2043898;28;20066;-59
2022/06/18 02:16:16;;;;;;;8.20;5.15;;;;;;;13.30;73.90;96701.06;2050945;28;20051;-59
2022/06/18 02:17:18;;;;;;;7.63;5.25;;;;;;;13.27;74.06;96701.22;2049480;29;20070;-60
2022/06/18 02:18:20;;;;;;;6.22;4.80;;;;;;;13.24;74.02;96701.34;2033897;29;20541;-59
2022/06/18 02:19:21;;;;;;;7.72;5.15;;;;;;;13.22;73.96;96697.94;2048948;28;20465;-59
2022/06/18 02:20:26;;;;;;;8.93;5.25;;;;;;;13.16;74.11;96699.06;2058088;28;20047;-58
2022/06/18 02:21:28;;;;;;;7.82;5.07;;;;;;;13.16;74.34;96706.06;2049305;29;20051;-59
2022/06/18 02:22:36;;;;;;;9.23;4.90;;;;;;;13.13;74.72;96690.56;2033234;29;20059;-58
2022/06/18 02:23:37;;;;;;;7.15;4.47;;;;;;;13.11;74.62;96700.22;2050246;28;20050;-58
2022/06/18 02:24:38;;;;;;;6.05;4.50;;;;;;;13.07;74.70;96693.44;2041681;29;20051;-59
2022/06/18 02:25:39;;;;;;;7.68;5.25;;;;;;;13.09;74.50;96700.25;2033157;29;20048;-59
2022/06/18 02:26:45;;;;;;;6.93;4.88;;;;;;;13.06;75.21;96702.19;2042468;28;20028;-59
2022/06/18 02:27:47;;;;;;;13.10;5.22;;;;;;;13.02;75.55;96697.09;2049953;28;20540;-59
2022/06/18 02:28:50;;;;;;;8.48;4.85;;;;;;;13.01;75.26;96692.78;2057140;28;20047;-59
2022/06/18 02:29:51;;;;;;;6.40;4.47;;;;;;;12.99;75.39;96694.66;2064675;28;20050;-59
2022/06/18 02:30:56;;;;;;;7.25;4.60;;;;;;;13.01;74.84;96695.41;2049342;28;20516;-59
2022/06/18 02:31:58;;;;;;;5.70;4.35;;;;;;;12.99;75.52;96693.78;2057886;28;20061;-59
2022/06/18 02:33:06;;;;;;;6.50;4.55;;;;;;;12.98;75.62;96692.94;2057656;28;20054;-59
2022/06/18 02:34:10;;;;;;;10.27;4.75;;;;;;;12.92;75.95;96695.00;2041782;29;20479;-59
2022/06/18 02:35:12;;;;;;;6.22;4.30;;;;;;;12.88;75.71;96696.03;2035136;29;20056;-59
2022/06/18 02:36:18;;;;;;;8.63;5.10;;;;;;;12.82;76.88;96697.16;2033713;29;20055;-59
2022/06/18 02:37:25;;;;;;;7.20;5.00;;;;;;;12.80;76.32;96696.38;2043846;28;20052;-58
2022/06/18 02:38:27;;;;;;;6.93;5.00;;;;;;;12.78;77.06;96698.22;2050415;28;20441;-59
2022/06/18 02:39:33;;;;;;;9.45;4.97;;;;;;;12.76;76.72;96698.28;2049285;28;20058;-59
2022/06/18 02:40:35;;;;;;;7.25;5.20;;;;;;;12.78;76.92;96698.22;2042622;29;20054;-56
2022/06/18 02:41:38;;;;;;;7.22;5.20;;;;;;;12.75;76.91;96691.38;2034369;29;20048;-59
2022/06/18 02:42:40;;;;;;;8.85;4.80;;;;;;;12.79;77.03;96686.88;2034278;29;20052;-58
2022/06/18 02:43:43;;;;;;;7.15;5.28;;;;;;;12.78;77.92;96693.84;2049172;29;20047;-59
2022/06/18 02:44:44;;;;;;;8.82;5.50;;;;;;;12.79;77.68;96692.09;2049097;28;20039;-60
2022/06/18 02:45:48;;;;;;;6.57;4.97;;;;;;;12.81;77.50;96700.69;2056825;28;20527;-59
2022/06/18 02:46:49;;;;;;;9.52;5.40;;;;;;;12.89;77.19;96700.34;2048952;29;20039;-59
2022/06/18 02:47:55;;;;;;;8.32;5.35;;;;;;;12.95;77.24;96694.84;2042822;29;20051;-59
2022/06/18 02:48:56;;;;;;;6.93;5.05;;;;;;;12.92;76.52;96703.66;2048763;29;20050;-59
2022/06/18 02:50:00;;;;;;;10.82;5.47;;;;;;;12.94;76.63;96698.38;2034115;29;20052;-60
2022/06/18 02:51:03;;;;;;;9.52;5.22;;;;;;;12.96;76.03;96696.53;2041998;28;20051;-59
2022/06/18 02:52:04;;;;;;;7.65;5.05;;;;;;;12.94;76.11;96701.00;2033394;29;20048;-59
2022/06/18 02:53:07;;;;;;;9.63;5.68;;;;;;;12.91;75.52;96695.88;2041529;29;20063;-59
2022/06/18 02:54:09;;;;;;;8.90;5.15;;;;;;;12.90;75.47;96697.66;2026468;29;20084;-60
2022/06/18 02:55:32;;;;;;;9.73;6.22;;;;;;;12.91;75.20;96696.75;2041655;29;20051;-59
2022/06/18 02:56:34;;;;;;;10.38;5.25;;;;;;;12.95;74.71;96700.91;2044861;28;20059;-57
2022/06/18 02:57:36;;;;;;;8.48;5.25;;;;;;;12.93;74.94;96683.63;2041776;29;20053;-57
2022/06/18 02:58:39;;;;;;;6.65;4.85;;;;;;;12.99;74.58;96689.44;2041943;28;20051;-60
2022/06/18 02:59:43;;;;;;;12.27;5.10;;;;;;;13.00;74.74;96693.72;2042494;29;20051;-60
2022/06/18 03:00:47;;;;;;;8.73;5.18;;;;;;;13.01;74.17;96690.19;2041498;29;20052;-59
2022/06/18 03:01:48;;;;;;;9.02;5.03;;;;;;;12.98;74.70;96699.91;2041518;29;20044;-58
2022/06/18 03:02:50;;;;;;;7.53;4.90;;;;;;;13.01;73.98;96695.41;2041281;29;20211;-59
2022/06/18 03:03:53;;;;;;;8.65;5.30;;;;;;;12.97;74.47;96700.84;2048899;29;20493;-58
2022/06/18 03:04:55;;;;;;;9.02;4.95;;;;;;;12.95;74.55;96711.34;2049702;28;20047;-58
2022/06/18 03:05:56;;;;;;;7.50;5.22;;;;;;;12.93;74.28;96697.50;2049180;29;20050;-59
2022/06/18 03:06:57;;;;;;;6.13;4.40;;;;;;;12.95;74.59;96705.28;2056471;28;20043;-59
2022/06/18 03:08:01;;;;;;;6.80;5.13;;;;;;;12.96;74.33;96705.22;2048183;29;20059;-58
2022/06/18 03:09:02;;;;;;;8.70;5.22;;;;;;;12.99;73.91;96707.69;2049223;28;20496;-59
2022/06/18 03:12:46;;;;;;;7.47;4.95;;;;;;;13.14;73.40;96697.44;2043761;29;20047;-60
2022/06/18 03:13:48;;;;;;;7.70;4.72;;;;;;;13.06;74.05;96699.56;2048934;29;20043;-59
2022/06/18 03:14:49;;;;;;;7.80;4.93;;;;;;;13.01;73.91;96703.22;2056714;28;20047;-59
2022/06/18 03:15:52;;;;;;;8.55;4.65;;;;;;;13.00;73.83;96693.72;2048915;29;20440;-60
2022/06/18 03:16:54;;;;;;;8.95;4.50;;;;;;;13.08;72.61;96687.31;2049124;28;20047;-59
2022/06/18 03:17:55;;;;;;;7.57;5.32;;;;;;;13.01;73.21;96686.75;2048981;29;20054;-59
2022/06/18 03:18:58;;;;;;;7.25;4.72;;;;;;;12.95;73.78;96680.03;2041585;29;20127;-59
2022/06/18 03:20:04;;;;;;;8.38;5.30;;;;;;;13.04;73.83;96689.19;2033748;29;20047;-59
2022/06/18 03:21:15;;;;;;;7.10;5.03;;;;;;;13.00;73.24;96683.28;2041663;29;20048;-59
2022/06/18 03:22:18;;;;;;;8.98;5.15;;;;;;;13.00;73.51;96685.91;2048703;28;20051;-59
2022/06/18 03:23:19;;;;;;;8.10;5.15;;;;;;;12.98;74.04;96689.50;2048805;29;20129;-60
2022/06/18 03:24:21;;;;;;;8.75;4.57;;;;;;;12.98;73.55;96694.69;2048645;29;20047;-59
2022/06/18 03:25:23;;;;;;;6.35;4.78;;;;;;;12.97;73.83;96685.19;2041631;29;20054;-59
2022/06/18 03:26:24;;;;;;;7.10;4.72;;;;;;;12.98;73.68;96685.13;2048813;29;20062;-59
2022/06/18 03:27:28;;;;;;;7.72;4.75;;;;;;;12.92;73.67;96674.97;2041764;29;20043;-59
2022/06/18 03:28:35;;;;;;;8.00;4.80;;;;;;;13.06;73.22;96683.94;2050294;28;20050;-55
2022/06/18 03:29:36;;;;;;;10.55;5.07;;;;;;;13.05;73.51;96684.84;2041458;29;20059;-58
2022/06/18 03:30:39;;;;;;;7.78;4.68;;;;;;;13.02;73.40;96678.84;2033300;29;20047;-59
2022/06/18 03:31:40;;;;;;;6.60;5.10;;;;;;;12.98;73.20;96682.50;2041590;29;20090;-58
2022/06/18 03:32:42;;;;;;;7.95;4.53;;;;;;;12.95;73.15;96671.38;2040940;29;20068;-58
2022/06/18 03:33:46;;;;;;;7.60;4.38;;;;;;;12.94;73.49;96680.13;2040774;28;20051;-58
2022/06/18 03:34:48;;;;;;;6.55;4.47;;;;;;;12.97;73.24;96669.56;2041000;29;20051;-61
2022/06/18 03:35:50;;;;;;;6.57;4.22;;;;;;;13.09;73.54;96674.19;2044404;28;20058;-60
2022/06/18 03:36:52;;;;;;;7.85;4.38;;;;;;;13.03;73.77;96675.31;2049174;28;20046;-59
2022/06/18 03:37:53;;;;;;;7.60;4.22;;;;;;;12.99;73.75;96671.19;2049041;28;20054;-59
2022/06/18 03:38:55;;;;;;;8.43;4.75;;;;;;;12.97;74.26;96665.19;2048376;29;20449;-60
2022/06/18 03:39:56;;;;;;;6.63;4.22;;;;;;;13.09;74.17;96666.38;2033762;29;20052;-58
2022/06/18 03:40:58;;;;;;;7.60;4.35;;;;;;;13.03;74.87;96670.09;2048696;28;20058;-59
2022/06/18 03:42:00;;;;;;;6.75;4.35;;;;;;;12.96;74.87;96670.47;2049063;29;20598;-59
2022/06/18 03:43:02;;;;;;;7.18;3.80;;;;;;;12.99;74.77;96676.41;2048908;28;20437;-60
2022/06/18 03:44:03;;;;;;;6.32;3.85;;;;;;;13.00;74.61;96669.41;2056283;28;20057;-58
2022/06/18 03:45:06;;;;;;;9.93;4.50;;;;;;;12.96;75.00;96671.31;2057225;28;20070;-59
2022/06/18 03:46:10;;;;;;;8.27;4.50;;;;;;;12.97;74.72;96670.41;2064798;28;20077;-59
2022/06/18 03:47:11;;;;;;;5.63;4.10;;;;;;;12.96;74.57;96671.31;2057278;28;20065;-59
2022/06/18 03:48:21;;;;;;;5.75;3.85;;;;;;;12.96;75.29;96671.31;2049781;28;20047;-59
2022/06/18 03:49:31;;;;;;;7.57;4.10;;;;;;;12.97;74.55;96667.78;2042771;28;20052;-59
2022/06/18 03:50:34;;;;;;;6.63;3.97;;;;;;;13.01;75.30;96674.53;2050413;28;20051;-56
2022/06/18 03:51:36;;;;;;;5.60;4.20;;;;;;;13.05;74.80;96666.59;2049169;28;20051;-58
2022/06/18 03:52:38;;;;;;;5.95;3.88;;;;;;;13.04;75.03;96665.72;2048928;28;20055;-60
2022/06/18 03:53:39;;;;;;;5.35;4.07;;;;;;;13.08;74.69;96671.66;2048506;28;20543;-59
2022/06/18 03:54:40;;;;;;;6.53;4.20;;;;;;;13.14;74.60;96664.41;2037476;29;20044;-59
2022/06/18 03:55:43;;;;;;;7.65;4.88;;;;;;;13.09;74.58;96658.53;2049274;28;20054;-59
2022/06/18 03:56:45;;;;;;;7.25;4.22;;;;;;;13.07;74.60;96663.00;2064662;28;20512;-58
2022/06/18 03:57:46;;;;;;;7.15;4.40;;;;;;;13.13;74.14;96662.72;2055999;28;20051;-59
2022/06/18 03:58:48;;;;;;;7.10;4.10;;;;;;;13.16;74.68;96665.19;2056979;28;20043;-59
2022/06/18 03:59:51;;;;;;;7.85;4.32;;;;;;;13.19;74.72;96658.97;2055812;28;20051;-59
2022/06/18 04:00:52;;;;;;;5.13;4.32;;;;;;;13.20;74.55;96663.25;2049084;29;20043;-59
2022/06/18 04:01:53;;;;;;;7.35;4.47;;;;;;;13.19;74.91;96657.19;2032691;29;20051;-60
2022/06/18 04:02:55;;;;;;;8.13;4.18;;;;;;;13.21;74.57;96663.19;2033101;29;20044;-60
2022/06/18 04:03:56;;;;;;;6.45;4.00;;;;;;;13.24;74.99;96665.66;2040907;28;20043;-60
2022/06/18 04:05:02;;;;;;;6.20;4.47;;;;;;;13.29;75.21;96665.47;2049463;28;20452;-59
2022/06/18 04:06:04;;;;;;;10.05;4.55;;;;;;;13.35;75.46;96662.56;2048823;28;20132;-59
2022/06/18 04:07:06;;;;;;;6.38;4.18;;;;;;;13.38;74.90;96665.03;2048776;28;20047;-60
2022/06/18 04:08:17;;;;;;;6.50;4.35;;;;;;;13.41;74.39;96657.06;2056050;28;20051;-59
2022/06/18 04:09:24;;;;;;;6.90;4.13;;;;;;;13.43;74.05;96660.44;2056539;28;20046;-60
2022/06/18 04:10:26;;;;;;;5.15;4.22;;;;;;;13.51;74.01;96661.84;2040609;29;20048;-59
2022/06/18 04:11:27;;;;;;;6.32;4.30;;;;;;;13.52;73.90;96661.75;2041055;29;20044;-59
2022/06/18 04:12:29;;;;;;;8.05;4.38;;;;;;;13.54;73.72;96664.31;2040413;29;20434;-60
2022/06/18 04:13:39;;;;;;;6.43;4.22;;;;;;;13.61;73.90;96656.09;2049705;28;20046;-59
2022/06/18 04:14:48;;;;;;;7.75;4.60;;;;;;;13.63;73.12;96661.22;2051173;28;20046;-59
2022/06/18 04:15:56;;;;;;;5.90;3.80;;;;;;;13.69;73.10;96660.97;2057560;28;20050;-59
2022/06/18 04:17:02;;;;;;;9.75;4.00;;;;;;;13.73;73.19;96659.88;2064498;28;20042;-61
2022/06/18 04:18:03;;;;;;;6.60;3.88;;;;;;;13.76;72.32;96657.09;2056425;28;20054;-60
2022/06/18 04:19:05;;;;;;;5.20;4.10;;;;;;;13.80;72.64;96661.25;2056798;28;20046;-60
2022/06/18 04:20:08;;;;;;;8.13;4.05;;;;;;;13.80;72.28;96658.66;2040744;29;20055;-59
2022/06/18 04:21:09;;;;;;;6.22;3.90;;;;;;;13.84;72.69;96660.19;2048680;28;20095;-60
2022/06/18 04:22:14;;;;;;;5.82;4.07;;;;;;;13.90;71.93;96657.28;2048317;29;20488;-60
2022/06/18 04:23:24;;;;;;;5.07;3.67;;;;;;;13.91;71.99;96658.13;2056454;28;20058;-60
2022/06/18 04:24:25;;;;;;;5.47;3.78;;;;;;;13.96;71.25;96658.75;2041684;28;20077;-60
2022/06/18 04:25:27;;;;;;;7.70;3.88;;;;;;;13.99;71.47;96660.34;2033247;29;20048;-60
2022/06/18 04:26:28;;;;;;;5.95;3.90;;;;;;;14.04;70.68;96660.97;2040574;29;20063;-59
2022/06/18 04:27:29;;;;;;;7.00;4.00;;;;;;;14.10;70.55;96665.88;2040775;29;20051;-60
2022/06/18 04:28:31;;;;;;;6.10;3.92;;;;;;;14.07;70.97;96663.41;2048764;28;20055;-60
2022/06/18 04:29:38;;;;;;;5.07;3.70;;;;;;;14.03;70.94;96665.34;2049178;28;20043;-59
2022/06/18 04:30:41;;;;;;;5.53;3.97;;;;;;;14.01;71.49;96661.13;2049636;28;20059;-59
2022/06/18 04:31:46;;;;;;;4.90;3.67;;;;;;;14.05;70.58;96665.25;2056982;28;20054;-60
2022/06/18 04:32:48;;;;;;;7.22;3.80;;;;;;;14.09;70.02;96658.97;2055874;28;20065;-59
2022/06/18 04:33:49;;;;;;;9.55;4.07;;;;;;;14.21;69.44;96660.94;2040562;29;20059;-59
2022/06/18 04:34:59;;;;;;;6.53;3.75;;;;;;;14.16;70.08;96662.09;2042314;28;20055;-60
2022/06/18 04:36:00;;;;;;;6.25;4.10;;;;;;;14.22;69.65;96665.25;2049803;28;20055;-60
2022/06/18 04:37:01;;;;;;;8.75;3.92;;;;;;;14.18;70.29;96660.25;2055968;28;20051;-60
2022/06/18 04:38:15;;;;;;;6.28;3.90;;;;;;;14.18;69.76;96662.88;2062622;28;20062;-60
2022/06/18 04:39:31;;;;;;;6.00;3.67;;;;;;;14.21;69.94;96660.94;2056153;28;20062;-59
2022/06/18 04:40:52;;;;;;;5.82;3.90;;;;;;;14.23;69.88;96664.31;2052464;28;20039;-60
2022/06/18 04:41:58;;;;;;;8.50;4.43;;;;;;;14.24;70.45;96666.00;2051604;28;20042;-59
2022/06/18 04:43:03;;;;;;;7.55;3.80;;;;;;;14.26;70.67;96658.94;2057338;28;20054;-60
2022/06/18 04:44:04;;;;;;;7.85;3.97;;;;;;;14.37;70.04;96665.38;2063816;28;20054;-58
2022/06/18 04:45:07;;;;;;;6.20;3.75;;;;;;;14.37;70.12;96666.22;2064316;28;20046;-59
2022/06/18 04:46:18;;;;;;;7.85;4.35;;;;;;;14.46;69.38;96667.50;2048118;29;20405;-58
2022/06/18 04:47:24;;;;;;;8.25;4.63;;;;;;;14.43;69.49;96657.22;2045530;28;20050;-58
2022/06/18 04:48:25;;;;;;;6.13;4.40;;;;;;;14.54;69.15;96670.59;2048772;28;20054;-59
2022/06/18 04:49:27;;;;;;;6.72;4.18;;;;;;;14.51;69.10;96665.50;2048892;28;20445;-59
2022/06/18 04:50:32;;;;;;;5.85;3.92;;;;;;;14.51;69.81;96668.13;2047885;28;20618;-59
2022/06/18 04:51:36;;;;;;;6.07;4.35;;;;;;;14.53;69.48;96677.59;2040979;29;20047;-59
2022/06/18 04:52:38;;;;;;;7.60;4.20;;;;;;;14.60;68.50;96669.47;2042034;28;20039;-59
2022/06/18 04:53:39;;;;;;;6.50;4.18;;;;;;;14.66;69.27;96669.13;2064300;28;20045;-60
2022/06/18 04:54:43;;;;;;;5.82;3.90;;;;;;;14.67;68.91;96676.03;2060066;28;20519;-60
2022/06/18 04:55:45;;;;;;;6.65;3.95;;;;;;;14.69;68.68;96675.03;2040199;29;20066;-59
2022/06/18 04:56:46;;;;;;;7.88;4.40;;;;;;;14.76;68.83;96671.19;2040322;29;20043;-59
2022/06/18 04:57:47;;;;;;;7.43;3.75;;;;;;;14.82;68.32;96669.16;2040714;29;20050;-59
2022/06/18 04:58:49;;;;;;;7.05;3.42;;;;;;;14.92;69.25;96670.38;2040503;29;20047;-59
2022/06/18 04:59:50;;;;;;;8.88;4.22;;;;;;;14.96;68.38;96672.72;2048661;28;20042;-58
2022/06/18 05:00:52;;;;;;;6.72;3.85;;;;;;;15.01;68.50;96669.84;2056558;28;20054;-60
2022/06/18 05:02:03;;;;;;;4.53;3.65;;;;;;;14.96;68.71;96670.09;2055770;28;20050;-59
2022/06/18 05:03:25;;;;;;;5.85;4.07;;;;;;;15.00;67.81;96676.03;2048128;29;20051;-59
2022/06/18 05:04:38;;;;;;;7.13;4.20;;;;;;;15.15;67.23;96671.72;2044836;29;20047;-60
2022/06/18 05:05:59;;;;;;;10.07;4.18;;;;;;;15.22;67.50;96675.69;2049189;28;20058;-61
2022/06/18 05:07:13;;;;;;;6.55;3.90;;;;;;;15.29;67.67;96674.44;2084323;23;20070;-64
2022/06/18 05:08:14;;;;;;;6.57;4.00;;;;;;;15.40;65.95;96672.06;2065262;28;20419;-63
2022/06/18 05:09:34;;;;;;;5.93;3.65;;;;;;;15.36;66.58;96680.16;2066513;28;20046;-60